sensor_id;sensor_type;location;lat;lon;timestamp;temperature;humidity
24800;DHT22;12897;50.812;4.430;2023-01-24T00:01:05;3.90;99.90
24800;DHT22;12897;50.812;4.430;2023-01-24T00:03:32;3.80;99.90
24800;DHT22;12897;50.812;4.430;2023-01-24T00:06:00;3.90;99.90
24800;DHT22;12897;50.812;4.430;2023-01-24T00:08:27;3.90;99.90
24800;DHT22;12897;50.812;4.430;2023-01-24T00:11:04;3.80;99.90
24800;DHT22;12897;50.812;4.430;2023-01-24T00:13:32;3.70;99.90
24800;DHT22;12897;50.812;4.430;2023-01-24T00:16:18;3.70;99.90
24800;DHT22;12897;50.812;4.430;2023-01-24T00:18:46;3.80;99.90
24800;DHT22;12897;50.812;4.430;2023-01-24T00:21:16;3.80;99.90
24800;DHT22;12897;50.812;4.430;2023-01-24T00:23:46;3.80;99.90
24800;DHT22;12897;50.812;4.430;2023-01-24T00:26:15;3.70;99.90
24800;DHT22;12897;50.812;4.430;2023-01-24T00:28:43;3.60;99.90
24800;DHT22;12897;50.812;4.430;2023-01-24T00:31:11;3.80;99.90
24800;DHT22;12897;50.812;4.430;2023-01-24T00:33:39;3.70;99.90
24800;DHT22;12897;50.812;4.430;2023-01-24T00:36:07;3.70;99.90
24800;DHT22;12897;50.812;4.430;2023-01-24T00:38:35;3.70;99.90
24800;DHT22;12897;50.812;4.430;2023-01-24T00:41:02;3.70;99.90
24800;DHT22;12897;50.812;4.430;2023-01-24T00:43:30;3.50;99.90
24800;DHT22;12897;50.812;4.430;2023-01-24T00:45:58;3.60;99.90
24800;DHT22;12897;50.812;4.430;2023-01-24T00:48:25;3.60;99.90
24800;DHT22;12897;50.812;4.430;2023-01-24T00:50:53;3.50;99.90
24800;DHT22;12897;50.812;4.430;2023-01-24T00:53:20;3.50;99.90
24800;DHT22;12897;50.812;4.430;2023-01-24T00:55:54;3.60;99.90
24800;DHT22;12897;50.812;4.430;2023-01-24T00:58:27;3.60;99.90
24800;DHT22;12897;50.812;4.430;2023-01-24T01:00:57;3.60;99.90
24800;DHT22;12897;50.812;4.430;2023-01-24T01:03:27;3.60;99.90
24800;DHT22;12897;50.812;4.430;2023-01-24T01:06:02;3.70;99.90
24800;DHT22;12897;50.812;4.430;2023-01-24T01:08:29;3.80;99.90
24800;DHT22;12897;50.812;4.430;2023-01-24T01:10:57;4.00;99.90
24800;DHT22;12897;50.812;4.430;2023-01-24T01:13:26;4.10;99.90
24800;DHT22;12897;50.812;4.430;2023-01-24T01:16:06;3.90;99.90
24800;DHT22;12897;50.812;4.430;2023-01-24T01:18:35;3.90;99.90
24800;DHT22;12897;50.812;4.430;2023-01-24T01:21:05;4.00;99.90
24800;DHT22;12897;50.812;4.430;2023-01-24T01:23:32;3.80;99.90
24800;DHT22;12897;50.812;4.430;2023-01-24T01:26:03;3.80;99.90
24800;DHT22;12897;50.812;4.430;2023-01-24T01:28:31;3.90;99.90
24800;DHT22;12897;50.812;4.430;2023-01-24T01:30:58;4.00;99.90
24800;DHT22;12897;50.812;4.430;2023-01-24T01:33:27;4.10;99.90
24800;DHT22;12897;50.812;4.430;2023-01-24T01:35:56;4.20;99.90
24800;DHT22;12897;50.812;4.430;2023-01-24T01:38:23;4.10;99.90
24800;DHT22;12897;50.812;4.430;2023-01-24T01:40:51;4.00;99.90
24800;DHT22;12897;50.812;4.430;2023-01-24T01:43:21;4.10;99.90
24800;DHT22;12897;50.812;4.430;2023-01-24T01:45:51;3.90;99.90
24800;DHT22;12897;50.812;4.430;2023-01-24T01:48:39;3.70;99.90
24800;DHT22;12897;50.812;4.430;2023-01-24T01:51:15;3.70;99.90
24800;DHT22;12897;50.812;4.430;2023-01-24T01:53:45;3.90;99.90
24800;DHT22;12897;50.812;4.430;2023-01-24T01:56:17;3.80;99.90
24800;DHT22;12897;50.812;4.430;2023-01-24T01:58:43;3.90;99.90
24800;DHT22;12897;50.812;4.430;2023-01-24T02:01:11;3.90;99.90
24800;DHT22;12897;50.812;4.430;2023-01-24T02:03:49;4.00;99.90
24800;DHT22;12897;50.812;4.430;2023-01-24T02:06:30;3.90;99.90
24800;DHT22;12897;50.812;4.430;2023-01-24T02:08:56;3.80;99.90
24800;DHT22;12897;50.812;4.430;2023-01-24T02:11:26;3.70;99.90
24800;DHT22;12897;50.812;4.430;2023-01-24T02:14:08;3.70;99.90
24800;DHT22;12897;50.812;4.430;2023-01-24T02:16:54;3.80;99.90
24800;DHT22;12897;50.812;4.430;2023-01-24T02:22:09;3.90;99.90
24800;DHT22;12897;50.812;4.430;2023-01-24T02:24:38;3.80;99.90
24800;DHT22;12897;50.812;4.430;2023-01-24T02:27:05;3.70;99.90
24800;DHT22;12897;50.812;4.430;2023-01-24T02:29:39;3.80;99.90
24800;DHT22;12897;50.812;4.430;2023-01-24T02:32:13;3.80;99.90
24800;DHT22;12897;50.812;4.430;2023-01-24T02:34:50;3.80;99.90
24800;DHT22;12897;50.812;4.430;2023-01-24T02:37:28;3.70;99.90
24800;DHT22;12897;50.812;4.430;2023-01-24T02:40:09;3.70;99.90
24800;DHT22;12897;50.812;4.430;2023-01-24T02:42:38;3.60;99.90
24800;DHT22;12897;50.812;4.430;2023-01-24T02:45:23;3.80;99.90
24800;DHT22;12897;50.812;4.430;2023-01-24T02:47:54;4.00;99.90
24800;DHT22;12897;50.812;4.430;2023-01-24T02:50:26;3.80;99.90
24800;DHT22;12897;50.812;4.430;2023-01-24T02:52:54;3.60;99.90
24800;DHT22;12897;50.812;4.430;2023-01-24T02:55:41;3.70;99.90
24800;DHT22;12897;50.812;4.430;2023-01-24T02:58:27;3.70;99.90
24800;DHT22;12897;50.812;4.430;2023-01-24T03:00:55;3.80;99.90
24800;DHT22;12897;50.812;4.430;2023-01-24T03:03:32;3.70;99.90
24800;DHT22;12897;50.812;4.430;2023-01-24T03:06:06;3.70;99.90
24800;DHT22;12897;50.812;4.430;2023-01-24T03:08:42;3.80;99.90
24800;DHT22;12897;50.812;4.430;2023-01-24T03:11:10;3.70;99.90
24800;DHT22;12897;50.812;4.430;2023-01-24T03:13:38;3.80;99.90
24800;DHT22;12897;50.812;4.430;2023-01-24T03:16:33;3.70;99.90
24800;DHT22;12897;50.812;4.430;2023-01-24T03:19:20;3.70;99.90
24800;DHT22;12897;50.812;4.430;2023-01-24T03:22:05;3.60;99.90
24800;DHT22;12897;50.812;4.430;2023-01-24T03:24:51;3.60;99.90
24800;DHT22;12897;50.812;4.430;2023-01-24T03:27:36;3.60;99.90
24800;DHT22;12897;50.812;4.430;2023-01-24T03:30:21;3.70;99.90
24800;DHT22;12897;50.812;4.430;2023-01-24T03:33:07;3.80;99.90
24800;DHT22;12897;50.812;4.430;2023-01-24T03:35:52;3.90;99.90
24800;DHT22;12897;50.812;4.430;2023-01-24T03:38:24;3.80;99.90
24800;DHT22;12897;50.812;4.430;2023-01-24T03:41:09;3.70;99.90
24800;DHT22;12897;50.812;4.430;2023-01-24T03:43:36;3.70;99.90
24800;DHT22;12897;50.812;4.430;2023-01-24T03:46:04;3.60;99.90
24800;DHT22;12897;50.812;4.430;2023-01-24T03:48:31;3.70;99.90
24800;DHT22;12897;50.812;4.430;2023-01-24T03:51:04;3.70;99.90
24800;DHT22;12897;50.812;4.430;2023-01-24T03:53:50;3.70;99.90
24800;DHT22;12897;50.812;4.430;2023-01-24T03:56:18;3.80;99.90
24800;DHT22;12897;50.812;4.430;2023-01-24T03:58:45;3.80;99.90
24800;DHT22;12897;50.812;4.430;2023-01-24T04:01:13;3.80;99.90
24800;DHT22;12897;50.812;4.430;2023-01-24T04:03:40;3.90;99.90
24800;DHT22;12897;50.812;4.430;2023-01-24T04:06:08;4.00;99.90
24800;DHT22;12897;50.812;4.430;2023-01-24T04:08:35;4.00;99.90
24800;DHT22;12897;50.812;4.430;2023-01-24T04:11:03;4.00;99.90
24800;DHT22;12897;50.812;4.430;2023-01-24T04:13:30;4.10;99.90
24800;DHT22;12897;50.812;4.430;2023-01-24T04:15:58;3.80;99.90
24800;DHT22;12897;50.812;4.430;2023-01-24T04:18:26;3.70;99.90
24800;DHT22;12897;50.812;4.430;2023-01-24T04:20:53;3.80;99.90
24800;DHT22;12897;50.812;4.430;2023-01-24T04:23:22;3.70;99.90
24800;DHT22;12897;50.812;4.430;2023-01-24T04:25:50;3.60;99.90
24800;DHT22;12897;50.812;4.430;2023-01-24T04:28:21;3.50;99.90
24800;DHT22;12897;50.812;4.430;2023-01-24T04:30:49;3.50;99.90
24800;DHT22;12897;50.812;4.430;2023-01-24T04:33:16;3.60;99.90
24800;DHT22;12897;50.812;4.430;2023-01-24T04:35:44;3.80;99.90
24800;DHT22;12897;50.812;4.430;2023-01-24T04:38:11;4.00;99.90
24800;DHT22;12897;50.812;4.430;2023-01-24T04:40:39;4.10;99.90
24800;DHT22;12897;50.812;4.430;2023-01-24T04:43:07;4.20;99.90
24800;DHT22;12897;50.812;4.430;2023-01-24T04:45:40;3.90;99.90
24800;DHT22;12897;50.812;4.430;2023-01-24T04:48:14;3.90;99.90
24800;DHT22;12897;50.812;4.430;2023-01-24T04:50:42;3.80;99.90
24800;DHT22;12897;50.812;4.430;2023-01-24T04:53:09;3.70;99.90
24800;DHT22;12897;50.812;4.430;2023-01-24T04:55:37;3.70;99.90
24800;DHT22;12897;50.812;4.430;2023-01-24T04:58:10;3.70;99.90
24800;DHT22;12897;50.812;4.430;2023-01-24T05:00:48;3.70;99.90
24800;DHT22;12897;50.812;4.430;2023-01-24T05:03:16;3.70;99.90
24800;DHT22;12897;50.812;4.430;2023-01-24T05:05:43;3.70;99.90
24800;DHT22;12897;50.812;4.430;2023-01-24T05:08:11;3.70;99.90
24800;DHT22;12897;50.812;4.430;2023-01-24T05:10:38;3.70;99.90
24800;DHT22;12897;50.812;4.430;2023-01-24T05:13:06;3.70;99.90
24800;DHT22;12897;50.812;4.430;2023-01-24T05:15:33;3.60;99.90
24800;DHT22;12897;50.812;4.430;2023-01-24T05:18:02;3.80;99.90
24800;DHT22;12897;50.812;4.430;2023-01-24T05:20:30;3.80;99.90
24800;DHT22;12897;50.812;4.430;2023-01-24T05:22:58;3.70;99.90
24800;DHT22;12897;50.812;4.430;2023-01-24T05:25:25;3.60;99.90
24800;DHT22;12897;50.812;4.430;2023-01-24T05:27:53;3.70;99.90
24800;DHT22;12897;50.812;4.430;2023-01-24T05:30:21;3.70;99.90
24800;DHT22;12897;50.812;4.430;2023-01-24T05:32:49;3.80;99.90
24800;DHT22;12897;50.812;4.430;2023-01-24T05:35:17;3.90;99.90
24800;DHT22;12897;50.812;4.430;2023-01-24T05:37:48;4.00;99.90
24800;DHT22;12897;50.812;4.430;2023-01-24T05:40:16;3.90;99.90
24800;DHT22;12897;50.812;4.430;2023-01-24T05:42:43;3.80;99.90
24800;DHT22;12897;50.812;4.430;2023-01-24T05:45:11;3.80;99.90
24800;DHT22;12897;50.812;4.430;2023-01-24T05:47:39;3.90;99.90
24800;DHT22;12897;50.812;4.430;2023-01-24T05:50:07;3.90;99.90
24800;DHT22;12897;50.812;4.430;2023-01-24T05:52:36;3.90;99.90
24800;DHT22;12897;50.812;4.430;2023-01-24T05:55:04;4.00;99.90
24800;DHT22;12897;50.812;4.430;2023-01-24T05:57:32;3.60;99.90
24800;DHT22;12897;50.812;4.430;2023-01-24T06:00:03;3.50;99.90
24800;DHT22;12897;50.812;4.430;2023-01-24T06:02:31;3.60;99.90
24800;DHT22;12897;50.812;4.430;2023-01-24T06:04:58;3.40;99.90
24800;DHT22;12897;50.812;4.430;2023-01-24T06:07:26;3.40;99.90
24800;DHT22;12897;50.812;4.430;2023-01-24T06:09:56;3.50;99.90
24800;DHT22;12897;50.812;4.430;2023-01-24T06:12:24;3.70;99.90
24800;DHT22;12897;50.812;4.430;2023-01-24T06:14:52;3.80;99.90
24800;DHT22;12897;50.812;4.430;2023-01-24T06:17:20;3.80;99.90
24800;DHT22;12897;50.812;4.430;2023-01-24T06:19:48;3.80;99.90
24800;DHT22;12897;50.812;4.430;2023-01-24T06:22:28;3.90;99.90
24800;DHT22;12897;50.812;4.430;2023-01-24T06:24:46;4.10;99.90
24800;DHT22;12897;50.812;4.430;2023-01-24T06:27:14;4.10;99.90
24800;DHT22;12897;50.812;4.430;2023-01-24T06:29:42;4.10;99.90
24800;DHT22;12897;50.812;4.430;2023-01-24T06:32:35;4.00;99.90
24800;DHT22;12897;50.812;4.430;2023-01-24T06:35:20;4.00;99.90
24800;DHT22;12897;50.812;4.430;2023-01-24T06:37:48;3.90;99.90
24800;DHT22;12897;50.812;4.430;2023-01-24T06:40:18;3.80;99.90
24800;DHT22;12897;50.812;4.430;2023-01-24T06:42:46;3.60;99.90
24800;DHT22;12897;50.812;4.430;2023-01-24T06:45:14;3.50;99.90
24800;DHT22;12897;50.812;4.430;2023-01-24T06:47:42;3.50;99.90
24800;DHT22;12897;50.812;4.430;2023-01-24T06:50:19;3.50;99.90
24800;DHT22;12897;50.812;4.430;2023-01-24T06:52:48;3.50;99.90
24800;DHT22;12897;50.812;4.430;2023-01-24T06:55:16;3.60;99.90
24800;DHT22;12897;50.812;4.430;2023-01-24T06:57:44;3.60;99.90
24800;DHT22;12897;50.812;4.430;2023-01-24T07:00:15;3.70;99.90
24800;DHT22;12897;50.812;4.430;2023-01-24T07:02:42;3.80;99.90
24800;DHT22;12897;50.812;4.430;2023-01-24T07:05:10;3.80;99.90
24800;DHT22;12897;50.812;4.430;2023-01-24T07:07:40;3.90;99.90
24800;DHT22;12897;50.812;4.430;2023-01-24T07:10:09;3.80;99.90
24800;DHT22;12897;50.812;4.430;2023-01-24T07:12:36;3.90;99.90
24800;DHT22;12897;50.812;4.430;2023-01-24T07:15:05;3.80;99.90
24800;DHT22;12897;50.812;4.430;2023-01-24T07:17:33;3.80;99.90
24800;DHT22;12897;50.812;4.430;2023-01-24T07:20:01;3.80;99.90
24800;DHT22;12897;50.812;4.430;2023-01-24T07:22:29;3.90;99.90
24800;DHT22;12897;50.812;4.430;2023-01-24T07:24:57;4.00;99.90
24800;DHT22;12897;50.812;4.430;2023-01-24T07:27:26;3.90;99.90
24800;DHT22;12897;50.812;4.430;2023-01-24T07:29:53;4.00;99.90
24800;DHT22;12897;50.812;4.430;2023-01-24T07:32:21;3.80;99.90
24800;DHT22;12897;50.812;4.430;2023-01-24T07:34:49;3.70;99.90
24800;DHT22;12897;50.812;4.430;2023-01-24T07:37:17;3.60;99.90
24800;DHT22;12897;50.812;4.430;2023-01-24T07:39:46;3.60;99.90
24800;DHT22;12897;50.812;4.430;2023-01-24T07:42:15;3.60;99.90
24800;DHT22;12897;50.812;4.430;2023-01-24T07:44:44;3.50;99.90
24800;DHT22;12897;50.812;4.430;2023-01-24T07:47:13;3.30;99.90
24800;DHT22;12897;50.812;4.430;2023-01-24T07:49:40;3.20;99.90
24800;DHT22;12897;50.812;4.430;2023-01-24T07:52:09;3.30;99.90
24800;DHT22;12897;50.812;4.430;2023-01-24T07:54:36;3.40;99.90
24800;DHT22;12897;50.812;4.430;2023-01-24T07:57:04;3.50;99.90
24800;DHT22;12897;50.812;4.430;2023-01-24T07:59:32;3.50;99.90
24800;DHT22;12897;50.812;4.430;2023-01-24T08:01:59;3.60;99.90
24800;DHT22;12897;50.812;4.430;2023-01-24T08:04:27;3.70;99.90
24800;DHT22;12897;50.812;4.430;2023-01-24T08:06:54;3.60;99.90
24800;DHT22;12897;50.812;4.430;2023-01-24T08:09:32;3.70;99.90
24800;DHT22;12897;50.812;4.430;2023-01-24T08:12:02;3.70;99.90
24800;DHT22;12897;50.812;4.430;2023-01-24T08:14:29;3.60;99.90
24800;DHT22;12897;50.812;4.430;2023-01-24T08:16:57;3.70;99.90
24800;DHT22;12897;50.812;4.430;2023-01-24T08:19:24;3.70;99.90
24800;DHT22;12897;50.812;4.430;2023-01-24T08:21:52;3.60;99.90
24800;DHT22;12897;50.812;4.430;2023-01-24T08:24:20;3.50;99.90
24800;DHT22;12897;50.812;4.430;2023-01-24T08:26:48;3.60;99.90
24800;DHT22;12897;50.812;4.430;2023-01-24T08:29:17;3.50;99.90
24800;DHT22;12897;50.812;4.430;2023-01-24T08:31:45;3.60;99.90
24800;DHT22;12897;50.812;4.430;2023-01-24T08:34:19;3.70;99.90
24800;DHT22;12897;50.812;4.430;2023-01-24T08:36:58;3.80;99.90
24800;DHT22;12897;50.812;4.430;2023-01-24T08:39:31;3.80;99.90
24800;DHT22;12897;50.812;4.430;2023-01-24T08:42:10;3.80;99.90
24800;DHT22;12897;50.812;4.430;2023-01-24T08:44:38;3.90;99.90
24800;DHT22;12897;50.812;4.430;2023-01-24T08:47:05;3.90;99.90
24800;DHT22;12897;50.812;4.430;2023-01-24T08:49:33;3.70;99.90
24800;DHT22;12897;50.812;4.430;2023-01-24T08:52:00;3.60;99.90
24800;DHT22;12897;50.812;4.430;2023-01-24T08:54:29;3.70;99.90
24800;DHT22;12897;50.812;4.430;2023-01-24T08:57:04;3.70;99.90
24800;DHT22;12897;50.812;4.430;2023-01-24T08:59:33;3.80;99.90
24800;DHT22;12897;50.812;4.430;2023-01-24T09:02:01;3.90;99.90
24800;DHT22;12897;50.812;4.430;2023-01-24T09:04:28;3.80;99.90
24800;DHT22;12897;50.812;4.430;2023-01-24T09:06:56;3.90;99.90
24800;DHT22;12897;50.812;4.430;2023-01-24T09:09:23;4.00;99.90
24800;DHT22;12897;50.812;4.430;2023-01-24T09:11:52;3.90;99.90
24800;DHT22;12897;50.812;4.430;2023-01-24T09:14:22;3.80;99.90
24800;DHT22;12897;50.812;4.430;2023-01-24T09:16:50;3.60;99.90
24800;DHT22;12897;50.812;4.430;2023-01-24T09:19:17;3.50;99.90
24800;DHT22;12897;50.812;4.430;2023-01-24T09:21:45;3.50;99.90
24800;DHT22;12897;50.812;4.430;2023-01-24T09:24:14;3.50;99.90
24800;DHT22;12897;50.812;4.430;2023-01-24T09:26:44;3.60;99.90
24800;DHT22;12897;50.812;4.430;2023-01-24T09:29:11;3.80;99.90
24800;DHT22;12897;50.812;4.430;2023-01-24T09:31:41;3.90;99.90
24800;DHT22;12897;50.812;4.430;2023-01-24T09:34:18;4.00;99.90
24800;DHT22;12897;50.812;4.430;2023-01-24T09:36:52;4.10;99.90
24800;DHT22;12897;50.812;4.430;2023-01-24T09:39:32;3.80;99.90
24800;DHT22;12897;50.812;4.430;2023-01-24T09:42:04;3.70;99.90
24800;DHT22;12897;50.812;4.430;2023-01-24T09:44:52;3.80;99.90
24800;DHT22;12897;50.812;4.430;2023-01-24T09:47:34;3.90;99.90
24800;DHT22;12897;50.812;4.430;2023-01-24T09:50:02;4.00;99.90
24800;DHT22;12897;50.812;4.430;2023-01-24T09:52:38;4.20;99.90
24800;DHT22;12897;50.812;4.430;2023-01-24T10:00:33;4.50;99.90
24800;DHT22;12897;50.812;4.430;2023-01-24T10:03:00;4.40;99.90
24800;DHT22;12897;50.812;4.430;2023-01-24T10:05:43;4.40;99.90
24800;DHT22;12897;50.812;4.430;2023-01-24T10:08:17;4.30;99.90
24800;DHT22;12897;50.812;4.430;2023-01-24T10:10:49;4.00;99.90
24800;DHT22;12897;50.812;4.430;2023-01-24T10:18:56;4.10;99.90
24800;DHT22;12897;50.812;4.430;2023-01-24T10:24:03;4.00;99.90
24800;DHT22;12897;50.812;4.430;2023-01-24T10:26:46;3.90;99.90
24800;DHT22;12897;50.812;4.430;2023-01-24T10:29:24;3.90;99.90
24800;DHT22;12897;50.812;4.430;2023-01-24T10:32:09;4.00;99.90
24800;DHT22;12897;50.812;4.430;2023-01-24T10:34:47;4.10;99.90
24800;DHT22;12897;50.812;4.430;2023-01-24T10:37:15;4.10;99.90
24800;DHT22;12897;50.812;4.430;2023-01-24T10:39:41;4.20;99.90
24800;DHT22;12897;50.812;4.430;2023-01-24T10:42:29;4.30;99.90
24800;DHT22;12897;50.812;4.430;2023-01-24T10:45:04;4.20;99.90
24800;DHT22;12897;50.812;4.430;2023-01-24T10:47:48;4.20;99.90
24800;DHT22;12897;50.812;4.430;2023-01-24T10:50:18;4.20;99.90
24800;DHT22;12897;50.812;4.430;2023-01-24T10:52:48;3.90;99.90
24800;DHT22;12897;50.812;4.430;2023-01-24T10:55:33;3.80;99.90
24800;DHT22;12897;50.812;4.430;2023-01-24T10:58:21;4.00;99.90
24800;DHT22;12897;50.812;4.430;2023-01-24T11:00:59;4.00;99.90
24800;DHT22;12897;50.812;4.430;2023-01-24T11:03:29;4.20;99.90
24800;DHT22;12897;50.812;4.430;2023-01-24T11:05:59;4.40;99.90
24800;DHT22;12897;50.812;4.430;2023-01-24T11:08:35;4.30;99.90
24800;DHT22;12897;50.812;4.430;2023-01-24T11:11:16;4.10;99.90
24800;DHT22;12897;50.812;4.430;2023-01-24T11:13:38;4.10;99.90
24800;DHT22;12897;50.812;4.430;2023-01-24T11:18:51;4.00;99.90
24800;DHT22;12897;50.812;4.430;2023-01-24T11:21:21;4.20;99.90
24800;DHT22;12897;50.812;4.430;2023-01-24T11:26:50;4.20;99.90
24800;DHT22;12897;50.812;4.430;2023-01-24T11:29:15;4.20;99.90
24800;DHT22;12897;50.812;4.430;2023-01-24T11:31:47;4.20;99.90
24800;DHT22;12897;50.812;4.430;2023-01-24T11:56:40;4.10;99.90
24800;DHT22;12897;50.812;4.430;2023-01-24T12:01:55;3.90;99.90
24800;DHT22;12897;50.812;4.430;2023-01-24T12:07:41;3.80;99.90
24800;DHT22;12897;50.812;4.430;2023-01-24T12:21:22;3.60;99.90
24800;DHT22;12897;50.812;4.430;2023-01-24T12:24:00;3.80;99.90
24800;DHT22;12897;50.812;4.430;2023-01-24T12:26:34;3.90;99.90
24800;DHT22;12897;50.812;4.430;2023-01-24T12:29:10;3.90;99.90
24800;DHT22;12897;50.812;4.430;2023-01-24T12:31:51;3.90;99.90
24800;DHT22;12897;50.812;4.430;2023-01-24T12:37:11;4.00;99.90
24800;DHT22;12897;50.812;4.430;2023-01-24T12:40:07;4.10;99.90
24800;DHT22;12897;50.812;4.430;2023-01-24T12:42:16;4.10;99.90
24800;DHT22;12897;50.812;4.430;2023-01-24T12:44:51;4.10;99.90
24800;DHT22;12897;50.812;4.430;2023-01-24T12:47:37;4.30;99.90
24800;DHT22;12897;50.812;4.430;2023-01-24T12:56:00;4.50;99.90
24800;DHT22;12897;50.812;4.430;2023-01-24T12:58:35;4.10;99.90
24800;DHT22;12897;50.812;4.430;2023-01-24T13:01:30;3.90;99.90
24800;DHT22;12897;50.812;4.430;2023-01-24T13:12:10;4.00;99.90
24800;DHT22;12897;50.812;4.430;2023-01-24T13:15:05;4.00;99.90
24800;DHT22;12897;50.812;4.430;2023-01-24T13:31:33;3.70;99.90
24800;DHT22;12897;50.812;4.430;2023-01-24T13:34:03;3.70;99.90
24800;DHT22;12897;50.812;4.430;2023-01-24T13:36:36;3.90;99.90
24800;DHT22;12897;50.812;4.430;2023-01-24T13:39:05;4.10;99.90
24800;DHT22;12897;50.812;4.430;2023-01-24T13:41:36;4.20;99.90
24800;DHT22;12897;50.812;4.430;2023-01-24T13:47:04;4.20;99.90
24800;DHT22;12897;50.812;4.430;2023-01-24T13:49:37;4.20;99.90
24800;DHT22;12897;50.812;4.430;2023-01-24T13:55:59;4.30;99.90
24800;DHT22;12897;50.812;4.430;2023-01-24T13:57:37;4.40;99.90
24800;DHT22;12897;50.812;4.430;2023-01-24T14:05:38;4.40;99.90
24800;DHT22;12897;50.812;4.430;2023-01-24T14:21:52;4.50;99.90
24800;DHT22;12897;50.812;4.430;2023-01-24T14:24:26;4.30;99.90
24800;DHT22;12897;50.812;4.430;2023-01-24T14:26:58;4.20;99.90
24800;DHT22;12897;50.812;4.430;2023-01-24T14:29:34;4.10;99.90
24800;DHT22;12897;50.812;4.430;2023-01-24T14:31:58;4.20;99.90
24800;DHT22;12897;50.812;4.430;2023-01-24T14:34:43;4.30;99.90
24800;DHT22;12897;50.812;4.430;2023-01-24T14:37:11;4.30;99.90
24800;DHT22;12897;50.812;4.430;2023-01-24T14:39:39;4.30;99.90
24800;DHT22;12897;50.812;4.430;2023-01-24T14:42:12;4.30;99.90
24800;DHT22;12897;50.812;4.430;2023-01-24T14:44:49;4.20;99.90
24800;DHT22;12897;50.812;4.430;2023-01-24T14:47:23;4.10;99.90
24800;DHT22;12897;50.812;4.430;2023-01-24T14:49:54;3.80;99.90
24800;DHT22;12897;50.812;4.430;2023-01-24T14:52:24;3.90;99.90
24800;DHT22;12897;50.812;4.430;2023-01-24T14:54:52;3.90;99.90
24800;DHT22;12897;50.812;4.430;2023-01-24T14:57:25;3.90;99.90
24800;DHT22;12897;50.812;4.430;2023-01-24T15:02:52;4.10;99.90
24800;DHT22;12897;50.812;4.430;2023-01-24T15:05:37;4.10;99.90
24800;DHT22;12897;50.812;4.430;2023-01-24T15:08:13;4.00;99.90
24800;DHT22;12897;50.812;4.430;2023-01-24T15:10:40;4.10;99.90
24800;DHT22;12897;50.812;4.430;2023-01-24T15:13:10;4.10;99.90
24800;DHT22;12897;50.812;4.430;2023-01-24T15:15:39;4.20;99.90
24800;DHT22;12897;50.812;4.430;2023-01-24T15:18:18;4.20;99.90
24800;DHT22;12897;50.812;4.430;2023-01-24T15:20:37;4.20;99.90
24800;DHT22;12897;50.812;4.430;2023-01-24T15:23:04;4.20;99.90
24800;DHT22;12897;50.812;4.430;2023-01-24T15:25:34;4.40;99.90
24800;DHT22;12897;50.812;4.430;2023-01-24T15:28:26;4.50;99.90
24800;DHT22;12897;50.812;4.430;2023-01-24T15:30:53;4.40;99.90
24800;DHT22;12897;50.812;4.430;2023-01-24T15:33:21;4.30;99.90
24800;DHT22;12897;50.812;4.430;2023-01-24T15:35:52;4.40;99.90
24800;DHT22;12897;50.812;4.430;2023-01-24T15:38:28;4.30;99.90
24800;DHT22;12897;50.812;4.430;2023-01-24T15:40:58;4.40;99.90
24800;DHT22;12897;50.812;4.430;2023-01-24T15:43:34;4.20;99.90
24800;DHT22;12897;50.812;4.430;2023-01-24T15:49:15;4.30;99.90
24800;DHT22;12897;50.812;4.430;2023-01-24T15:51:36;4.30;99.90
24800;DHT22;12897;50.812;4.430;2023-01-24T15:54:10;4.30;99.90
24800;DHT22;12897;50.812;4.430;2023-01-24T15:56:40;4.40;99.90
24800;DHT22;12897;50.812;4.430;2023-01-24T15:59:17;4.20;99.90
24800;DHT22;12897;50.812;4.430;2023-01-24T16:01:41;4.20;99.90
24800;DHT22;12897;50.812;4.430;2023-01-24T16:04:18;4.10;99.90
24800;DHT22;12897;50.812;4.430;2023-01-24T16:06:49;4.20;99.90
24800;DHT22;12897;50.812;4.430;2023-01-24T16:09:13;4.30;99.90
24800;DHT22;12897;50.812;4.430;2023-01-24T16:11:44;4.30;99.90
24800;DHT22;12897;50.812;4.430;2023-01-24T16:14:14;4.20;99.90
24800;DHT22;12897;50.812;4.430;2023-01-24T16:16:39;4.30;99.90
24800;DHT22;12897;50.812;4.430;2023-01-24T16:19:12;4.20;99.90
24800;DHT22;12897;50.812;4.430;2023-01-24T16:21:39;4.10;99.90
24800;DHT22;12897;50.812;4.430;2023-01-24T16:24:07;4.10;99.90
24800;DHT22;12897;50.812;4.430;2023-01-24T16:26:34;4.10;99.90
24800;DHT22;12897;50.812;4.430;2023-01-24T16:29:02;3.90;99.90
24800;DHT22;12897;50.812;4.430;2023-01-24T16:31:30;3.90;99.90
24800;DHT22;12897;50.812;4.430;2023-01-24T16:33:58;3.80;99.90
24800;DHT22;12897;50.812;4.430;2023-01-24T16:36:25;3.90;99.90
24800;DHT22;12897;50.812;4.430;2023-01-24T16:38:56;3.90;99.90
24800;DHT22;12897;50.812;4.430;2023-01-24T16:41:32;3.80;99.90
24800;DHT22;12897;50.812;4.430;2023-01-24T16:44:00;4.10;99.90
24800;DHT22;12897;50.812;4.430;2023-01-24T16:46:27;4.20;99.90
24800;DHT22;12897;50.812;4.430;2023-01-24T16:48:55;4.10;99.90
24800;DHT22;12897;50.812;4.430;2023-01-24T16:51:23;4.10;99.90
24800;DHT22;12897;50.812;4.430;2023-01-24T16:53:54;4.10;99.90
24800;DHT22;12897;50.812;4.430;2023-01-24T16:56:22;4.00;99.90
24800;DHT22;12897;50.812;4.430;2023-01-24T16:58:56;4.00;99.90
24800;DHT22;12897;50.812;4.430;2023-01-24T17:01:23;4.00;99.90
24800;DHT22;12897;50.812;4.430;2023-01-24T17:03:51;4.00;99.90
24800;DHT22;12897;50.812;4.430;2023-01-24T17:06:19;3.90;99.90
24800;DHT22;12897;50.812;4.430;2023-01-24T17:08:52;3.80;99.90
24800;DHT22;12897;50.812;4.430;2023-01-24T17:11:20;3.70;99.90
24800;DHT22;12897;50.812;4.430;2023-01-24T17:13:54;3.80;99.90
24800;DHT22;12897;50.812;4.430;2023-01-24T17:16:18;3.80;99.90
24800;DHT22;12897;50.812;4.430;2023-01-24T17:18:46;3.80;99.90
24800;DHT22;12897;50.812;4.430;2023-01-24T17:21:16;3.80;99.90
24800;DHT22;12897;50.812;4.430;2023-01-24T17:23:44;3.60;99.90
24800;DHT22;12897;50.812;4.430;2023-01-24T17:26:14;3.80;99.90
24800;DHT22;12897;50.812;4.430;2023-01-24T17:28:45;3.90;99.90
24800;DHT22;12897;50.812;4.430;2023-01-24T17:31:15;3.90;99.90
24800;DHT22;12897;50.812;4.430;2023-01-24T17:33:42;3.90;99.90
24800;DHT22;12897;50.812;4.430;2023-01-24T17:36:10;3.80;99.90
24800;DHT22;12897;50.812;4.430;2023-01-24T17:38:42;3.70;99.90
24800;DHT22;12897;50.812;4.430;2023-01-24T17:41:17;3.70;99.90
24800;DHT22;12897;50.812;4.430;2023-01-24T17:43:45;3.60;99.90
24800;DHT22;12897;50.812;4.430;2023-01-24T17:46:15;3.60;99.90
24800;DHT22;12897;50.812;4.430;2023-01-24T17:48:43;3.70;99.90
24800;DHT22;12897;50.812;4.430;2023-01-24T17:51:15;3.60;99.90
24800;DHT22;12897;50.812;4.430;2023-01-24T17:53:45;3.70;99.90
24800;DHT22;12897;50.812;4.430;2023-01-24T17:56:13;3.80;99.90
24800;DHT22;12897;50.812;4.430;2023-01-24T17:58:41;3.90;99.90
24800;DHT22;12897;50.812;4.430;2023-01-24T18:01:09;3.60;99.90
24800;DHT22;12897;50.812;4.430;2023-01-24T18:03:38;3.70;99.90
24800;DHT22;12897;50.812;4.430;2023-01-24T18:06:08;3.60;99.90
24800;DHT22;12897;50.812;4.430;2023-01-24T18:08:36;3.50;99.90
24800;DHT22;12897;50.812;4.430;2023-01-24T18:11:10;3.70;99.90
24800;DHT22;12897;50.812;4.430;2023-01-24T18:13:38;3.80;99.90